sensor_id;sensor_type;location;lat;lon;timestamp;P1;durP1;ratioP1;P2;durP2;ratioP2
26702;SDS011;14316;51.074;3.704;2023-05-27T00:00:35;20.05;;;8.40;;
26702;SDS011;14316;51.074;3.704;2023-05-27T00:03:00;18.52;;;8.20;;
26702;SDS011;14316;51.074;3.704;2023-05-27T00:05:27;20.67;;;8.27;;
26702;SDS011;14316;51.074;3.704;2023-05-27T00:07:53;19.30;;;8.70;;
26702;SDS011;14316;51.074;3.704;2023-05-27T00:10:19;19.88;;;7.50;;
26702;SDS011;14316;51.074;3.704;2023-05-27T00:12:45;18.90;;;7.75;;
26702;SDS011;14316;51.074;3.704;2023-05-27T00:15:11;22.23;;;8.75;;
26702;SDS011;14316;51.074;3.704;2023-05-27T00:17:37;21.95;;;9.80;;
26702;SDS011;14316;51.074;3.704;2023-05-27T00:20:04;22.05;;;9.48;;
26702;SDS011;14316;51.074;3.704;2023-05-27T00:22:31;24.65;;;10.50;;
26702;SDS011;14316;51.074;3.704;2023-05-27T00:24:57;28.50;;;10.68;;
26702;SDS011;14316;51.074;3.704;2023-05-27T00:27:23;24.50;;;9.70;;
26702;SDS011;14316;51.074;3.704;2023-05-27T00:29:49;21.95;;;9.88;;
26702;SDS011;14316;51.074;3.704;2023-05-27T00:32:14;26.15;;;10.90;;
26702;SDS011;14316;51.074;3.704;2023-05-27T00:34:41;21.95;;;8.85;;
26702;SDS011;14316;51.074;3.704;2023-05-27T00:37:07;21.00;;;9.50;;
26702;SDS011;14316;51.074;3.704;2023-05-27T00:39:33;19.30;;;8.95;;
26702;SDS011;14316;51.074;3.704;2023-05-27T00:41:59;20.50;;;8.60;;
26702;SDS011;14316;51.074;3.704;2023-05-27T00:44:26;22.55;;;8.88;;
26702;SDS011;14316;51.074;3.704;2023-05-27T00:46:52;22.58;;;8.85;;
26702;SDS011;14316;51.074;3.704;2023-05-27T00:49:18;20.55;;;8.45;;
26702;SDS011;14316;51.074;3.704;2023-05-27T00:51:44;18.65;;;8.90;;
26702;SDS011;14316;51.074;3.704;2023-05-27T00:54:10;21.35;;;9.07;;
26702;SDS011;14316;51.074;3.704;2023-05-27T00:56:37;23.20;;;8.80;;
26702;SDS011;14316;51.074;3.704;2023-05-27T00:59:03;21.55;;;8.55;;
26702;SDS011;14316;51.074;3.704;2023-05-27T01:01:30;20.77;;;8.77;;
26702;SDS011;14316;51.074;3.704;2023-05-27T01:03:58;17.88;;;7.53;;
26702;SDS011;14316;51.074;3.704;2023-05-27T01:09:09;24.75;;;9.60;;
26702;SDS011;14316;51.074;3.704;2023-05-27T01:11:49;24.05;;;9.88;;
26702;SDS011;14316;51.074;3.704;2023-05-27T01:14:27;25.38;;;8.98;;
26702;SDS011;14316;51.074;3.704;2023-05-27T01:16:55;21.08;;;8.07;;
26702;SDS011;14316;51.074;3.704;2023-05-27T01:19:41;22.52;;;8.23;;
26702;SDS011;14316;51.074;3.704;2023-05-27T01:22:13;21.10;;;7.88;;
26702;SDS011;14316;51.074;3.704;2023-05-27T01:24:40;22.90;;;8.27;;
26702;SDS011;14316;51.074;3.704;2023-05-27T01:27:10;24.35;;;8.45;;
26702;SDS011;14316;51.074;3.704;2023-05-27T01:29:40;21.88;;;8.13;;
26702;SDS011;14316;51.074;3.704;2023-05-27T01:32:12;19.83;;;7.85;;
26702;SDS011;14316;51.074;3.704;2023-05-27T01:35:07;19.58;;;7.15;;
26702;SDS011;14316;51.074;3.704;2023-05-27T01:37:47;19.52;;;8.02;;
26702;SDS011;14316;51.074;3.704;2023-05-27T01:40:17;18.40;;;7.25;;
26702;SDS011;14316;51.074;3.704;2023-05-27T01:42:44;25.52;;;8.10;;
26702;SDS011;14316;51.074;3.704;2023-05-27T01:45:10;25.42;;;7.75;;
26702;SDS011;14316;51.074;3.704;2023-05-27T01:47:37;21.73;;;7.53;;
26702;SDS011;14316;51.074;3.704;2023-05-27T01:50:03;21.90;;;7.25;;
26702;SDS011;14316;51.074;3.704;2023-05-27T01:52:30;22.08;;;7.72;;
26702;SDS011;14316;51.074;3.704;2023-05-27T01:54:56;21.67;;;7.40;;
26702;SDS011;14316;51.074;3.704;2023-05-27T01:57:23;21.98;;;7.85;;
26702;SDS011;14316;51.074;3.704;2023-05-27T01:59:50;19.40;;;7.45;;
26702;SDS011;14316;51.074;3.704;2023-05-27T02:02:16;21.60;;;7.85;;
26702;SDS011;14316;51.074;3.704;2023-05-27T02:04:42;22.55;;;8.38;;
26702;SDS011;14316;51.074;3.704;2023-05-27T02:07:07;22.40;;;8.30;;
26702;SDS011;14316;51.074;3.704;2023-05-27T02:09:33;26.52;;;8.40;;
26702;SDS011;14316;51.074;3.704;2023-05-27T02:11:59;23.48;;;8.85;;
26702;SDS011;14316;51.074;3.704;2023-05-27T02:14:26;23.25;;;8.35;;
26702;SDS011;14316;51.074;3.704;2023-05-27T02:16:52;24.38;;;8.23;;
26702;SDS011;14316;51.074;3.704;2023-05-27T02:19:17;25.35;;;8.40;;
26702;SDS011;14316;51.074;3.704;2023-05-27T02:21:45;20.80;;;8.60;;
26702;SDS011;14316;51.074;3.704;2023-05-27T02:24:11;22.33;;;8.50;;
26702;SDS011;14316;51.074;3.704;2023-05-27T02:26:38;19.60;;;8.48;;
26702;SDS011;14316;51.074;3.704;2023-05-27T02:29:03;19.77;;;7.80;;
26702;SDS011;14316;51.074;3.704;2023-05-27T02:31:29;19.45;;;7.75;;
26702;SDS011;14316;51.074;3.704;2023-05-27T02:33:55;18.92;;;8.30;;
26702;SDS011;14316;51.074;3.704;2023-05-27T02:36:21;20.70;;;8.40;;
26702;SDS011;14316;51.074;3.704;2023-05-27T02:38:48;22.10;;;8.20;;
26702;SDS011;14316;51.074;3.704;2023-05-27T02:41:14;18.35;;;8.20;;
26702;SDS011;14316;51.074;3.704;2023-05-27T02:43:39;19.67;;;6.95;;
26702;SDS011;14316;51.074;3.704;2023-05-27T02:46:05;26.98;;;8.10;;
26702;SDS011;14316;51.074;3.704;2023-05-27T02:48:31;23.40;;;8.18;;
26702;SDS011;14316;51.074;3.704;2023-05-27T02:50:57;20.75;;;7.88;;
26702;SDS011;14316;51.074;3.704;2023-05-27T02:53:22;20.67;;;7.50;;
26702;SDS011;14316;51.074;3.704;2023-05-27T02:55:49;28.42;;;10.00;;
26702;SDS011;14316;51.074;3.704;2023-05-27T02:58:15;26.40;;;10.18;;
26702;SDS011;14316;51.074;3.704;2023-05-27T03:00:41;24.90;;;11.00;;
26702;SDS011;14316;51.074;3.704;2023-05-27T03:03:06;22.35;;;10.75;;
26702;SDS011;14316;51.074;3.704;2023-05-27T03:05:33;23.73;;;10.00;;
26702;SDS011;14316;51.074;3.704;2023-05-27T03:08:00;25.98;;;11.10;;
26702;SDS011;14316;51.074;3.704;2023-05-27T03:10:26;25.65;;;10.18;;
26702;SDS011;14316;51.074;3.704;2023-05-27T03:12:55;24.90;;;11.20;;
26702;SDS011;14316;51.074;3.704;2023-05-27T03:15:22;25.95;;;11.52;;
26702;SDS011;14316;51.074;3.704;2023-05-27T03:17:47;26.98;;;11.55;;
26702;SDS011;14316;51.074;3.704;2023-05-27T03:20:13;25.27;;;11.40;;
26702;SDS011;14316;51.074;3.704;2023-05-27T03:22:41;26.33;;;10.75;;
26702;SDS011;14316;51.074;3.704;2023-05-27T03:25:08;28.00;;;10.40;;
26702;SDS011;14316;51.074;3.704;2023-05-27T03:27:34;24.83;;;10.80;;
26702;SDS011;14316;51.074;3.704;2023-05-27T03:30:02;23.85;;;10.50;;
26702;SDS011;14316;51.074;3.704;2023-05-27T03:32:29;25.45;;;10.88;;
26702;SDS011;14316;51.074;3.704;2023-05-27T03:34:55;24.13;;;9.98;;
26702;SDS011;14316;51.074;3.704;2023-05-27T03:37:21;20.52;;;8.60;;
26702;SDS011;14316;51.074;3.704;2023-05-27T03:39:47;21.95;;;8.95;;
26702;SDS011;14316;51.074;3.704;2023-05-27T03:42:12;18.52;;;7.85;;
26702;SDS011;14316;51.074;3.704;2023-05-27T03:44:38;18.45;;;7.88;;
26702;SDS011;14316;51.074;3.704;2023-05-27T03:47:04;25.55;;;8.85;;
26702;SDS011;14316;51.074;3.704;2023-05-27T03:49:31;24.10;;;7.90;;
26702;SDS011;14316;51.074;3.704;2023-05-27T03:51:57;17.73;;;7.70;;
26702;SDS011;14316;51.074;3.704;2023-05-27T03:54:23;21.40;;;8.13;;
26702;SDS011;14316;51.074;3.704;2023-05-27T03:56:49;19.90;;;7.70;;
26702;SDS011;14316;51.074;3.704;2023-05-27T03:59:15;19.83;;;7.47;;
26702;SDS011;14316;51.074;3.704;2023-05-27T04:01:43;25.20;;;8.05;;
26702;SDS011;14316;51.074;3.704;2023-05-27T04:04:09;19.13;;;7.57;;
26702;SDS011;14316;51.074;3.704;2023-05-27T04:06:35;20.65;;;7.75;;
26702;SDS011;14316;51.074;3.704;2023-05-27T04:09:02;22.38;;;7.97;;
26702;SDS011;14316;51.074;3.704;2023-05-27T04:11:29;17.35;;;7.85;;
26702;SDS011;14316;51.074;3.704;2023-05-27T04:13:56;16.35;;;6.90;;
26702;SDS011;14316;51.074;3.704;2023-05-27T04:16:23;23.33;;;7.75;;
26702;SDS011;14316;51.074;3.704;2023-05-27T04:18:50;20.35;;;7.55;;
26702;SDS011;14316;51.074;3.704;2023-05-27T04:21:17;23.58;;;8.30;;
26702;SDS011;14316;51.074;3.704;2023-05-27T04:23:43;20.60;;;8.10;;
26702;SDS011;14316;51.074;3.704;2023-05-27T04:26:09;15.20;;;6.97;;
26702;SDS011;14316;51.074;3.704;2023-05-27T04:28:35;19.92;;;8.73;;
26702;SDS011;14316;51.074;3.704;2023-05-27T04:31:01;18.67;;;8.20;;
26702;SDS011;14316;51.074;3.704;2023-05-27T04:33:27;18.95;;;8.07;;
26702;SDS011;14316;51.074;3.704;2023-05-27T04:35:53;19.38;;;8.27;;
26702;SDS011;14316;51.074;3.704;2023-05-27T04:38:21;21.80;;;7.97;;
26702;SDS011;14316;51.074;3.704;2023-05-27T04:40:48;15.35;;;7.88;;
26702;SDS011;14316;51.074;3.704;2023-05-27T04:43:21;17.13;;;8.15;;
26702;SDS011;14316;51.074;3.704;2023-05-27T04:45:48;17.92;;;7.32;;
26702;SDS011;14316;51.074;3.704;2023-05-27T04:48:14;16.45;;;7.68;;
26702;SDS011;14316;51.074;3.704;2023-05-27T04:50:41;23.65;;;7.85;;
26702;SDS011;14316;51.074;3.704;2023-05-27T04:53:07;19.95;;;7.82;;
26702;SDS011;14316;51.074;3.704;2023-05-27T04:55:33;21.02;;;8.02;;
26702;SDS011;14316;51.074;3.704;2023-05-27T04:58:00;21.27;;;7.88;;
26702;SDS011;14316;51.074;3.704;2023-05-27T05:00:30;17.38;;;7.22;;
26702;SDS011;14316;51.074;3.704;2023-05-27T05:03:21;20.02;;;7.28;;
26702;SDS011;14316;51.074;3.704;2023-05-27T05:06:02;17.25;;;7.63;;
26702;SDS011;14316;51.074;3.704;2023-05-27T05:08:32;15.35;;;7.43;;
26702;SDS011;14316;51.074;3.704;2023-05-27T05:10:58;19.20;;;7.28;;
26702;SDS011;14316;51.074;3.704;2023-05-27T05:13:24;22.73;;;8.18;;
26702;SDS011;14316;51.074;3.704;2023-05-27T05:15:53;21.08;;;7.38;;
26702;SDS011;14316;51.074;3.704;2023-05-27T05:18:20;18.77;;;7.57;;
26702;SDS011;14316;51.074;3.704;2023-05-27T05:20:46;18.38;;;7.43;;
26702;SDS011;14316;51.074;3.704;2023-05-27T05:23:11;19.75;;;8.00;;
26702;SDS011;14316;51.074;3.704;2023-05-27T05:25:37;15.05;;;7.05;;
26702;SDS011;14316;51.074;3.704;2023-05-27T05:28:06;18.08;;;7.45;;
26702;SDS011;14316;51.074;3.704;2023-05-27T05:30:33;19.58;;;7.65;;
26702;SDS011;14316;51.074;3.704;2023-05-27T05:32:59;18.25;;;7.72;;
26702;SDS011;14316;51.074;3.704;2023-05-27T05:35:25;17.42;;;7.35;;
26702;SDS011;14316;51.074;3.704;2023-05-27T05:37:50;19.33;;;7.95;;
26702;SDS011;14316;51.074;3.704;2023-05-27T05:40:16;23.25;;;8.00;;
26702;SDS011;14316;51.074;3.704;2023-05-27T05:42:43;19.73;;;8.13;;
26702;SDS011;14316;51.074;3.704;2023-05-27T05:45:09;18.77;;;7.93;;
26702;SDS011;14316;51.074;3.704;2023-05-27T05:47:35;19.92;;;8.45;;
26702;SDS011;14316;51.074;3.704;2023-05-27T05:50:01;21.08;;;7.78;;
26702;SDS011;14316;51.074;3.704;2023-05-27T05:52:26;22.65;;;8.27;;
26702;SDS011;14316;51.074;3.704;2023-05-27T05:54:53;17.85;;;7.82;;
26702;SDS011;14316;51.074;3.704;2023-05-27T05:57:19;21.95;;;8.10;;
26702;SDS011;14316;51.074;3.704;2023-05-27T05:59:44;22.73;;;8.43;;
26702;SDS011;14316;51.074;3.704;2023-05-27T06:02:10;19.23;;;8.00;;
26702;SDS011;14316;51.074;3.704;2023-05-27T06:04:36;17.17;;;7.07;;
26702;SDS011;14316;51.074;3.704;2023-05-27T06:07:02;19.42;;;6.50;;
26702;SDS011;14316;51.074;3.704;2023-05-27T06:09:28;15.10;;;6.70;;
26702;SDS011;14316;51.074;3.704;2023-05-27T06:11:54;15.02;;;6.75;;
26702;SDS011;14316;51.074;3.704;2023-05-27T06:14:19;19.85;;;7.15;;
26702;SDS011;14316;51.074;3.704;2023-05-27T06:16:47;21.38;;;7.75;;
26702;SDS011;14316;51.074;3.704;2023-05-27T06:19:14;14.48;;;7.63;;
26702;SDS011;14316;51.074;3.704;2023-05-27T06:21:39;19.02;;;7.13;;
26702;SDS011;14316;51.074;3.704;2023-05-27T06:24:06;14.13;;;6.40;;
26702;SDS011;14316;51.074;3.704;2023-05-27T06:26:33;17.45;;;7.25;;
26702;SDS011;14316;51.074;3.704;2023-05-27T06:28:58;18.25;;;8.45;;
26702;SDS011;14316;51.074;3.704;2023-05-27T06:31:25;19.85;;;8.55;;
26702;SDS011;14316;51.074;3.704;2023-05-27T06:33:52;22.88;;;9.18;;
26702;SDS011;14316;51.074;3.704;2023-05-27T06:36:18;17.10;;;8.02;;
26702;SDS011;14316;51.074;3.704;2023-05-27T06:38:44;18.25;;;9.25;;
26702;SDS011;14316;51.074;3.704;2023-05-27T06:41:10;21.13;;;7.93;;
26702;SDS011;14316;51.074;3.704;2023-05-27T06:43:37;19.85;;;8.55;;
26702;SDS011;14316;51.074;3.704;2023-05-27T06:46:02;18.27;;;7.63;;
26702;SDS011;14316;51.074;3.704;2023-05-27T06:48:28;19.02;;;8.07;;
26702;SDS011;14316;51.074;3.704;2023-05-27T06:50:54;15.52;;;7.40;;
26702;SDS011;14316;51.074;3.704;2023-05-27T06:53:20;17.42;;;7.57;;
26702;SDS011;14316;51.074;3.704;2023-05-27T06:55:46;24.20;;;9.32;;
26702;SDS011;14316;51.074;3.704;2023-05-27T06:58:12;14.65;;;8.23;;
26702;SDS011;14316;51.074;3.704;2023-05-27T07:00:38;17.38;;;7.97;;
26702;SDS011;14316;51.074;3.704;2023-05-27T07:03:03;15.90;;;7.82;;
26702;SDS011;14316;51.074;3.704;2023-05-27T07:05:30;18.35;;;8.40;;
26702;SDS011;14316;51.074;3.704;2023-05-27T07:07:56;27.33;;;7.80;;
26702;SDS011;14316;51.074;3.704;2023-05-27T07:10:22;16.50;;;8.55;;
26702;SDS011;14316;51.074;3.704;2023-05-27T07:12:48;18.25;;;8.20;;
26702;SDS011;14316;51.074;3.704;2023-05-27T07:15:14;19.20;;;8.40;;
26702;SDS011;14316;51.074;3.704;2023-05-27T07:17:39;20.80;;;7.97;;
26702;SDS011;14316;51.074;3.704;2023-05-27T07:20:06;16.50;;;7.55;;
26702;SDS011;14316;51.074;3.704;2023-05-27T07:22:33;21.05;;;8.20;;
26702;SDS011;14316;51.074;3.704;2023-05-27T07:24:58;18.02;;;7.70;;
26702;SDS011;14316;51.074;3.704;2023-05-27T07:27:24;16.75;;;8.15;;
26702;SDS011;14316;51.074;3.704;2023-05-27T07:29:50;24.85;;;8.73;;
26702;SDS011;14316;51.074;3.704;2023-05-27T07:32:17;19.20;;;8.60;;
26702;SDS011;14316;51.074;3.704;2023-05-27T07:34:43;19.35;;;7.68;;
26702;SDS011;14316;51.074;3.704;2023-05-27T07:37:08;17.27;;;7.88;;
26702;SDS011;14316;51.074;3.704;2023-05-27T07:39:34;18.10;;;7.75;;
26702;SDS011;14316;51.074;3.704;2023-05-27T07:42:00;17.30;;;7.53;;
26702;SDS011;14316;51.074;3.704;2023-05-27T07:44:26;19.10;;;8.63;;
26702;SDS011;14316;51.074;3.704;2023-05-27T07:46:53;18.35;;;7.95;;
26702;SDS011;14316;51.074;3.704;2023-05-27T07:49:19;24.42;;;8.55;;
26702;SDS011;14316;51.074;3.704;2023-05-27T07:51:45;14.55;;;7.40;;
26702;SDS011;14316;51.074;3.704;2023-05-27T07:54:11;18.55;;;8.13;;
26702;SDS011;14316;51.074;3.704;2023-05-27T07:56:38;16.65;;;6.75;;
26702;SDS011;14316;51.074;3.704;2023-05-27T07:59:04;19.67;;;8.30;;
26702;SDS011;14316;51.074;3.704;2023-05-27T08:01:30;21.95;;;8.52;;
26702;SDS011;14316;51.074;3.704;2023-05-27T08:03:58;15.18;;;8.18;;
26702;SDS011;14316;51.074;3.704;2023-05-27T08:06:26;19.63;;;9.80;;
26702;SDS011;14316;51.074;3.704;2023-05-27T08:08:52;16.25;;;7.57;;
26702;SDS011;14316;51.074;3.704;2023-05-27T08:11:18;14.70;;;7.28;;
26702;SDS011;14316;51.074;3.704;2023-05-27T08:13:44;18.23;;;7.50;;
26702;SDS011;14316;51.074;3.704;2023-05-27T08:16:10;17.60;;;7.55;;
26702;SDS011;14316;51.074;3.704;2023-05-27T08:18:36;20.00;;;8.55;;
26702;SDS011;14316;51.074;3.704;2023-05-27T08:21:03;17.20;;;8.07;;
26702;SDS011;14316;51.074;3.704;2023-05-27T08:23:29;18.58;;;8.75;;
26702;SDS011;14316;51.074;3.704;2023-05-27T08:25:55;19.35;;;8.80;;
26702;SDS011;14316;51.074;3.704;2023-05-27T08:28:20;20.25;;;8.93;;
26702;SDS011;14316;51.074;3.704;2023-05-27T08:30:46;18.90;;;8.65;;
26702;SDS011;14316;51.074;3.704;2023-05-27T08:33:12;16.95;;;8.48;;
26702;SDS011;14316;51.074;3.704;2023-05-27T08:35:38;14.65;;;8.27;;
26702;SDS011;14316;51.074;3.704;2023-05-27T08:38:04;22.27;;;9.73;;
26702;SDS011;14316;51.074;3.704;2023-05-27T08:40:30;20.85;;;8.95;;
26702;SDS011;14316;51.074;3.704;2023-05-27T08:42:56;16.15;;;8.30;;
26702;SDS011;14316;51.074;3.704;2023-05-27T08:45:22;18.88;;;9.05;;
26702;SDS011;14316;51.074;3.704;2023-05-27T08:47:48;19.02;;;8.50;;
26702;SDS011;14316;51.074;3.704;2023-05-27T08:50:15;22.90;;;8.88;;
26702;SDS011;14316;51.074;3.704;2023-05-27T08:52:52;14.73;;;7.93;;
26702;SDS011;14316;51.074;3.704;2023-05-27T08:55:19;18.25;;;8.02;;
26702;SDS011;14316;51.074;3.704;2023-05-27T08:57:56;22.00;;;8.07;;
26702;SDS011;14316;51.074;3.704;2023-05-27T09:00:26;15.85;;;7.55;;
26702;SDS011;14316;51.074;3.704;2023-05-27T09:02:52;17.25;;;8.38;;
26702;SDS011;14316;51.074;3.704;2023-05-27T09:05:21;22.55;;;8.57;;
26702;SDS011;14316;51.074;3.704;2023-05-27T09:07:47;18.63;;;8.20;;
26702;SDS011;14316;51.074;3.704;2023-05-27T09:10:14;17.40;;;8.30;;
26702;SDS011;14316;51.074;3.704;2023-05-27T09:12:42;16.83;;;8.13;;
26702;SDS011;14316;51.074;3.704;2023-05-27T09:15:10;18.58;;;8.40;;
26702;SDS011;14316;51.074;3.704;2023-05-27T09:17:40;14.63;;;7.25;;
26702;SDS011;14316;51.074;3.704;2023-05-27T09:20:07;17.25;;;7.60;;
26702;SDS011;14316;51.074;3.704;2023-05-27T09:22:36;16.17;;;7.47;;
26702;SDS011;14316;51.074;3.704;2023-05-27T09:25:02;21.58;;;7.90;;
26702;SDS011;14316;51.074;3.704;2023-05-27T09:27:29;15.75;;;6.75;;
26702;SDS011;14316;51.074;3.704;2023-05-27T09:29:57;15.70;;;8.43;;
26702;SDS011;14316;51.074;3.704;2023-05-27T09:32:31;14.77;;;7.15;;
26702;SDS011;14316;51.074;3.704;2023-05-27T09:34:58;17.05;;;7.65;;
26702;SDS011;14316;51.074;3.704;2023-05-27T09:37:29;14.75;;;6.50;;
26702;SDS011;14316;51.074;3.704;2023-05-27T09:39:59;17.05;;;8.15;;
26702;SDS011;14316;51.074;3.704;2023-05-27T09:42:39;15.80;;;7.90;;
26702;SDS011;14316;51.074;3.704;2023-05-27T09:45:07;15.57;;;6.90;;
26702;SDS011;14316;51.074;3.704;2023-05-27T09:47:37;17.20;;;7.68;;
26702;SDS011;14316;51.074;3.704;2023-05-27T09:50:05;17.42;;;8.25;;
26702;SDS011;14316;51.074;3.704;2023-05-27T09:52:36;19.27;;;8.40;;
26702;SDS011;14316;51.074;3.704;2023-05-27T09:55:05;13.88;;;6.57;;
26702;SDS011;14316;51.074;3.704;2023-05-27T09:57:33;15.20;;;7.65;;
26702;SDS011;14316;51.074;3.704;2023-05-27T10:00:01;14.48;;;7.85;;
26702;SDS011;14316;51.074;3.704;2023-05-27T10:02:35;18.73;;;9.93;;
26702;SDS011;14316;51.074;3.704;2023-05-27T10:05:02;18.75;;;9.07;;
26702;SDS011;14316;51.074;3.704;2023-05-27T10:07:32;17.73;;;8.27;;
26702;SDS011;14316;51.074;3.704;2023-05-27T10:10:04;17.95;;;8.75;;
26702;SDS011;14316;51.074;3.704;2023-05-27T10:12:35;18.40;;;8.48;;
26702;SDS011;14316;51.074;3.704;2023-05-27T10:15:02;15.40;;;8.68;;
26702;SDS011;14316;51.074;3.704;2023-05-27T10:17:39;16.77;;;8.55;;
26702;SDS011;14316;51.074;3.704;2023-05-27T10:20:12;20.70;;;8.05;;
26702;SDS011;14316;51.074;3.704;2023-05-27T10:22:38;15.68;;;7.80;;
26702;SDS011;14316;51.074;3.704;2023-05-27T10:25:11;14.43;;;7.30;;
26702;SDS011;14316;51.074;3.704;2023-05-27T10:27:42;16.00;;;9.02;;
26702;SDS011;14316;51.074;3.704;2023-05-27T10:30:09;15.90;;;8.45;;
26702;SDS011;14316;51.074;3.704;2023-05-27T10:32:42;17.17;;;8.52;;
26702;SDS011;14316;51.074;3.704;2023-05-27T10:35:15;16.67;;;7.90;;
26702;SDS011;14316;51.074;3.704;2023-05-27T10:37:42;16.80;;;8.13;;
26702;SDS011;14316;51.074;3.704;2023-05-27T10:40:08;16.98;;;8.77;;
26702;SDS011;14316;51.074;3.704;2023-05-27T10:42:35;17.23;;;8.65;;
26702;SDS011;14316;51.074;3.704;2023-05-27T10:45:08;17.38;;;8.68;;
26702;SDS011;14316;51.074;3.704;2023-05-27T10:47:44;17.40;;;8.98;;
26702;SDS011;14316;51.074;3.704;2023-05-27T10:50:14;18.08;;;8.68;;
26702;SDS011;14316;51.074;3.704;2023-05-27T10:52:40;12.95;;;7.60;;
26702;SDS011;14316;51.074;3.704;2023-05-27T10:55:06;19.83;;;8.95;;
26702;SDS011;14316;51.074;3.704;2023-05-27T10:57:33;15.98;;;8.13;;
26702;SDS011;14316;51.074;3.704;2023-05-27T11:00:03;17.15;;;8.75;;
26702;SDS011;14316;51.074;3.704;2023-05-27T11:02:34;16.65;;;8.57;;
26702;SDS011;14316;51.074;3.704;2023-05-27T11:05:08;14.43;;;7.93;;
26702;SDS011;14316;51.074;3.704;2023-05-27T11:07:38;14.70;;;8.05;;
26702;SDS011;14316;51.074;3.704;2023-05-27T11:10:05;15.52;;;7.07;;
26702;SDS011;14316;51.074;3.704;2023-05-27T11:12:35;16.60;;;7.72;;
26702;SDS011;14316;51.074;3.704;2023-05-27T11:15:02;13.88;;;6.93;;
26702;SDS011;14316;51.074;3.704;2023-05-27T11:17:28;16.38;;;8.38;;
26702;SDS011;14316;51.074;3.704;2023-05-27T11:19:55;16.42;;;6.55;;
26702;SDS011;14316;51.074;3.704;2023-05-27T11:22:20;13.32;;;7.75;;
26702;SDS011;14316;51.074;3.704;2023-05-27T11:24:59;11.07;;;5.95;;
26702;SDS011;14316;51.074;3.704;2023-05-27T11:27:33;12.93;;;7.18;;
26702;SDS011;14316;51.074;3.704;2023-05-27T11:30:06;14.88;;;6.55;;
26702;SDS011;14316;51.074;3.704;2023-05-27T11:32:34;13.43;;;6.85;;
26702;SDS011;14316;51.074;3.704;2023-05-27T11:35:00;18.45;;;12.70;;
26702;SDS011;14316;51.074;3.704;2023-05-27T11:37:31;13.88;;;6.60;;
26702;SDS011;14316;51.074;3.704;2023-05-27T11:39:59;11.90;;;6.60;;
26702;SDS011;14316;51.074;3.704;2023-05-27T11:42:25;15.63;;;6.45;;
26702;SDS011;14316;51.074;3.704;2023-05-27T11:44:54;13.10;;;6.32;;
26702;SDS011;14316;51.074;3.704;2023-05-27T11:47:20;10.55;;;6.68;;
26702;SDS011;14316;51.074;3.704;2023-05-27T11:49:50;13.93;;;6.93;;
26702;SDS011;14316;51.074;3.704;2023-05-27T11:52:17;11.98;;;6.30;;
26702;SDS011;14316;51.074;3.704;2023-05-27T11:54:43;13.48;;;6.78;;
26702;SDS011;14316;51.074;3.704;2023-05-27T11:57:09;15.02;;;7.32;;
26702;SDS011;14316;51.074;3.704;2023-05-27T11:59:38;18.02;;;11.68;;
26702;SDS011;14316;51.074;3.704;2023-05-27T12:02:04;14.40;;;7.00;;
26702;SDS011;14316;51.074;3.704;2023-05-27T12:04:30;11.80;;;6.55;;
26702;SDS011;14316;51.074;3.704;2023-05-27T12:06:56;12.35;;;6.25;;
26702;SDS011;14316;51.074;3.704;2023-05-27T12:09:23;10.10;;;5.78;;
26702;SDS011;14316;51.074;3.704;2023-05-27T12:11:49;12.93;;;5.90;;
26702;SDS011;14316;51.074;3.704;2023-05-27T12:14:15;11.60;;;7.20;;
26702;SDS011;14316;51.074;3.704;2023-05-27T12:16:40;11.48;;;6.40;;
26702;SDS011;14316;51.074;3.704;2023-05-27T12:19:06;14.55;;;6.68;;
26702;SDS011;14316;51.074;3.704;2023-05-27T12:21:32;13.23;;;7.03;;
26702;SDS011;14316;51.074;3.704;2023-05-27T12:23:58;12.70;;;5.88;;
26702;SDS011;14316;51.074;3.704;2023-05-27T12:26:25;9.65;;;5.78;;
26702;SDS011;14316;51.074;3.704;2023-05-27T12:28:51;14.52;;;7.03;;
26702;SDS011;14316;51.074;3.704;2023-05-27T12:31:16;11.85;;;6.43;;
26702;SDS011;14316;51.074;3.704;2023-05-27T12:33:42;16.67;;;6.15;;
26702;SDS011;14316;51.074;3.704;2023-05-27T12:36:09;12.60;;;6.57;;
26702;SDS011;14316;51.074;3.704;2023-05-27T12:38:36;15.02;;;7.43;;
26702;SDS011;14316;51.074;3.704;2023-05-27T12:41:02;15.30;;;7.70;;
26702;SDS011;14316;51.074;3.704;2023-05-27T12:43:28;11.93;;;6.47;;
26702;SDS011;14316;51.074;3.704;2023-05-27T12:45:53;12.48;;;5.72;;
26702;SDS011;14316;51.074;3.704;2023-05-27T12:48:20;10.63;;;5.00;;
26702;SDS011;14316;51.074;3.704;2023-05-27T12:50:46;12.80;;;5.25;;
26702;SDS011;14316;51.074;3.704;2023-05-27T12:53:12;9.77;;;5.13;;
26702;SDS011;14316;51.074;3.704;2023-05-27T12:55:38;15.05;;;6.72;;
26702;SDS011;14316;51.074;3.704;2023-05-27T12:58:04;12.48;;;6.70;;
26702;SDS011;14316;51.074;3.704;2023-05-27T13:00:29;14.82;;;8.65;;
26702;SDS011;14316;51.074;3.704;2023-05-27T13:02:56;11.98;;;6.30;;
26702;SDS011;14316;51.074;3.704;2023-05-27T13:05:22;11.70;;;5.50;;
26702;SDS011;14316;51.074;3.704;2023-05-27T13:07:55;9.65;;;4.68;;
26702;SDS011;14316;51.074;3.704;2023-05-27T13:10:25;11.60;;;5.63;;
26702;SDS011;14316;51.074;3.704;2023-05-27T13:12:51;14.68;;;7.70;;
26702;SDS011;14316;51.074;3.704;2023-05-27T13:15:19;11.70;;;5.45;;
26702;SDS011;14316;51.074;3.704;2023-05-27T13:17:45;13.48;;;5.75;;
26702;SDS011;14316;51.074;3.704;2023-05-27T13:20:15;8.45;;;5.10;;
26702;SDS011;14316;51.074;3.704;2023-05-27T13:22:41;12.45;;;6.03;;
26702;SDS011;14316;51.074;3.704;2023-05-27T13:25:08;10.32;;;5.50;;
26702;SDS011;14316;51.074;3.704;2023-05-27T13:27:36;10.15;;;5.30;;
26702;SDS011;14316;51.074;3.704;2023-05-27T13:30:03;12.40;;;5.65;;
26702;SDS011;14316;51.074;3.704;2023-05-27T13:32:29;12.30;;;5.45;;
26702;SDS011;14316;51.074;3.704;2023-05-27T13:34:55;12.80;;;5.25;;
26702;SDS011;14316;51.074;3.704;2023-05-27T13:37:21;14.27;;;5.63;;
26702;SDS011;14316;51.074;3.704;2023-05-27T13:39:48;10.38;;;5.55;;
26702;SDS011;14316;51.074;3.704;2023-05-27T13:42:13;11.13;;;5.20;;
26702;SDS011;14316;51.074;3.704;2023-05-27T13:44:39;10.43;;;5.57;;
26702;SDS011;14316;51.074;3.704;2023-05-27T13:47:06;10.85;;;5.45;;
26702;SDS011;14316;51.074;3.704;2023-05-27T13:49:32;11.57;;;5.40;;
26702;SDS011;14316;51.074;3.704;2023-05-27T13:51:58;9.30;;;4.68;;
26702;SDS011;14316;51.074;3.704;2023-05-27T13:54:25;10.95;;;4.63;;
26702;SDS011;14316;51.074;3.704;2023-05-27T13:56:51;10.88;;;5.03;;
26702;SDS011;14316;51.074;3.704;2023-05-27T13:59:17;11.55;;;5.75;;
26702;SDS011;14316;51.074;3.704;2023-05-27T14:01:42;9.25;;;4.72;;
26702;SDS011;14316;51.074;3.704;2023-05-27T14:04:09;10.10;;;4.70;;
26702;SDS011;14316;51.074;3.704;2023-05-27T14:06:35;10.18;;;4.80;;
26702;SDS011;14316;51.074;3.704;2023-05-27T14:09:01;11.23;;;5.25;;
26702;SDS011;14316;51.074;3.704;2023-05-27T14:11:27;11.50;;;4.93;;
26702;SDS011;14316;51.074;3.704;2023-05-27T14:13:53;11.63;;;4.50;;
26702;SDS011;14316;51.074;3.704;2023-05-27T14:16:21;8.18;;;4.50;;
26702;SDS011;14316;51.074;3.704;2023-05-27T14:18:47;12.57;;;5.57;;
26702;SDS011;14316;51.074;3.704;2023-05-27T14:21:14;12.75;;;5.15;;
26702;SDS011;14316;51.074;3.704;2023-05-27T14:23:41;10.65;;;4.80;;
26702;SDS011;14316;51.074;3.704;2023-05-27T14:26:07;8.95;;;4.63;;
26702;SDS011;14316;51.074;3.704;2023-05-27T14:28:33;11.27;;;4.75;;
26702;SDS011;14316;51.074;3.704;2023-05-27T14:30:59;9.13;;;4.85;;
26702;SDS011;14316;51.074;3.704;2023-05-27T14:33:25;11.85;;;5.43;;
26702;SDS011;14316;51.074;3.704;2023-05-27T14:35:50;9.27;;;5.22;;